createdAt,value
2023-05-09T00:01:13.505Z,8.08
2023-05-09T00:02:17.862Z,8.19
2023-05-09T00:03:21.765Z,8.12
2023-05-09T00:04:25.825Z,8.11
2023-05-09T00:05:30.359Z,8.08
2023-05-09T00:06:33.131Z,8.03
2023-05-09T00:07:39.084Z,7.95
2023-05-09T00:08:42.430Z,7.95
2023-05-09T00:09:45.630Z,7.95
2023-05-09T00:10:47.982Z,7.93
2023-05-09T00:11:53.362Z,7.99
2023-05-09T00:12:57.486Z,7.99
2023-05-09T00:14:00.843Z,8.03
2023-05-09T00:15:04.818Z,8.02
2023-05-09T00:16:08.772Z,7.91
2023-05-09T00:17:13.459Z,7.97
2023-05-09T00:18:19.871Z,7.95
2023-05-09T00:19:23.324Z,7.96
2023-05-09T00:20:26.737Z,7.98
2023-05-09T00:21:32.009Z,8.02
2023-05-09T00:22:35.624Z,8.08
2023-05-09T00:23:39.436Z,8.02
2023-05-09T00:24:42.843Z,8.02
2023-05-09T00:25:46.450Z,8.00
2023-05-09T00:26:49.839Z,8.02
2023-05-09T00:27:56.310Z,8.06
2023-05-09T00:29:01.460Z,8.06
2023-05-09T00:30:09.017Z,8.07
2023-05-09T00:31:14.532Z,8.07
2023-05-09T00:32:17.974Z,8.05
2023-05-09T00:33:21.329Z,7.96
2023-05-09T00:34:24.414Z,7.90
2023-05-09T00:35:28.535Z,7.91
2023-05-09T00:36:32.990Z,7.95
2023-05-09T00:37:36.494Z,7.95
2023-05-09T00:38:40.880Z,7.99
2023-05-09T00:39:44.448Z,7.96
2023-05-09T00:40:47.901Z,7.97
2023-05-09T00:41:51.040Z,8.01
2023-05-09T00:42:56.631Z,7.95
2023-05-09T00:44:01.275Z,8.00
2023-05-09T00:45:07.501Z,8.04
2023-05-09T00:46:10.197Z,8.00
2023-05-09T00:47:13.459Z,8.02
2023-05-09T00:48:16.173Z,7.99
2023-05-09T00:49:22.458Z,7.89
2023-05-09T00:50:27.705Z,7.98
2023-05-09T00:51:33.148Z,7.92
2023-05-09T00:52:36.788Z,7.88
2023-05-09T00:53:40.981Z,7.84
2023-05-09T00:54:44.582Z,7.92
2023-05-09T00:55:46.944Z,7.91
2023-05-09T00:56:53.157Z,8.03
2023-05-09T00:57:56.667Z,7.96
2023-05-09T00:59:01.750Z,7.84
2023-05-09T01:00:05.660Z,7.86
2023-05-09T01:01:08.583Z,7.83
2023-05-09T01:02:11.589Z,7.83
2023-05-09T01:03:14.499Z,7.84
2023-05-09T01:04:18.439Z,7.68
2023-05-09T01:05:23.812Z,7.69
2023-05-09T01:06:32.436Z,7.72
2023-05-09T01:07:36.986Z,7.76
2023-05-09T01:09:01.483Z,7.82
2023-05-09T01:10:07.289Z,7.76
2023-05-09T01:11:13.844Z,7.76
2023-05-09T01:13:43.197Z,7.78
2023-05-09T01:14:48.470Z,7.49
2023-05-09T01:16:06.279Z,7.56
2023-05-09T01:17:14.891Z,7.63
2023-05-09T01:18:19.547Z,7.59
2023-05-09T01:19:42.053Z,7.50
2023-05-09T01:20:47.766Z,7.51
2023-05-09T01:21:52.971Z,7.47
2023-05-09T01:22:58.640Z,7.47
2023-05-09T01:24:24.596Z,7.45
2023-05-09T01:25:44.090Z,7.40
2023-05-09T01:27:13.431Z,7.44
2023-05-09T01:28:20.580Z,7.37
2023-05-09T01:29:40.983Z,7.37
2023-05-09T01:30:46.220Z,7.34
2023-05-09T01:31:49.981Z,7.37
2023-05-09T01:34:06.386Z,7.36
2023-05-09T01:35:10.844Z,7.25
2023-05-09T01:36:16.003Z,7.25
2023-05-09T01:37:21.323Z,7.19
2023-05-09T01:38:26.391Z,7.22
2023-05-09T01:39:29.820Z,7.22
2023-05-09T01:40:34.470Z,7.12
2023-05-09T01:41:38.558Z,7.06
2023-05-09T01:42:44.975Z,7.08
2023-05-09T01:43:50.305Z,7.10
2023-05-09T01:44:54.282Z,7.13
2023-05-09T01:46:00.319Z,7.22
2023-05-09T01:47:07.440Z,7.15
2023-05-09T01:48:11.794Z,7.10
2023-05-09T01:49:16.452Z,7.04
2023-05-09T01:50:19.536Z,7.03
2023-05-09T01:51:24.188Z,7.06
2023-05-09T01:52:28.327Z,7.02
2023-05-09T01:53:30.792Z,7.01
2023-05-09T01:54:36.274Z,7.02
2023-05-09T01:55:42.339Z,6.98
2023-05-09T01:56:47.150Z,6.94
2023-05-09T01:57:51.695Z,6.96
2023-05-09T01:58:56.144Z,6.94
2023-05-09T01:59:58.800Z,6.99
2023-05-09T02:01:05.250Z,6.92
2023-05-09T02:02:08.961Z,6.90
2023-05-09T02:03:13.188Z,6.83
2023-05-09T02:04:17.962Z,6.86
2023-05-09T02:05:22.287Z,6.82
2023-05-09T02:06:25.493Z,6.77
2023-05-09T02:07:31.283Z,6.76
2023-05-09T02:08:34.161Z,6.71
2023-05-09T02:09:37.603Z,6.68
2023-05-09T02:10:42.545Z,6.70
2023-05-09T02:11:46.450Z,6.72
2023-05-09T02:12:51.250Z,6.76
2023-05-09T02:13:54.712Z,6.79
2023-05-09T02:14:57.901Z,6.85
2023-05-09T02:16:01.516Z,6.80
2023-05-09T02:17:06.560Z,6.74
2023-05-09T02:18:11.239Z,6.67
2023-05-09T02:19:15.690Z,6.73
2023-05-09T02:20:19.114Z,6.72
2023-05-09T02:21:22.590Z,6.64
2023-05-09T02:22:25.897Z,6.68
2023-05-09T02:23:29.491Z,6.70
2023-05-09T02:24:34.666Z,6.70
2023-05-09T02:25:39.217Z,6.71
2023-05-09T02:26:43.045Z,6.72
2023-05-09T02:27:47.067Z,6.81
2023-05-09T02:28:50.781Z,6.87
2023-05-09T02:29:59.232Z,6.85
2023-05-09T02:31:05.752Z,6.86
2023-05-09T02:32:11.178Z,6.87
2023-05-09T02:33:15.120Z,6.88
2023-05-09T02:34:18.821Z,6.89
2023-05-09T02:35:23.506Z,6.90
2023-05-09T02:36:27.635Z,6.89
2023-05-09T02:37:31.880Z,6.85
2023-05-09T02:38:35.796Z,6.84
2023-05-09T02:39:42.540Z,6.85
2023-05-09T02:40:50.928Z,6.84
2023-05-09T02:41:56.561Z,6.68
2023-05-09T02:42:59.836Z,6.82
2023-05-09T02:44:06.790Z,6.85
2023-05-09T02:45:12.741Z,6.86
2023-05-09T02:46:16.407Z,6.87
2023-05-09T02:47:18.978Z,6.90
2023-05-09T02:48:22.591Z,6.91
2023-05-09T02:49:32.525Z,6.96
2023-05-09T02:50:32.317Z,7.04
2023-05-09T02:51:35.734Z,7.03
2023-05-09T02:52:39.631Z,6.99
2023-05-09T02:53:43.251Z,6.94
2023-05-09T02:54:47.486Z,6.96
2023-05-09T02:55:51.520Z,6.95
2023-05-09T02:56:53.797Z,7.02
2023-05-09T02:58:12.094Z,7.01
2023-05-09T02:59:06.407Z,7.02
2023-05-09T03:00:10.850Z,7.02
2023-05-09T03:01:17.448Z,6.99
2023-05-09T03:02:25.596Z,7.10
2023-05-09T03:03:28.948Z,7.12
2023-05-09T03:04:33.129Z,7.10
2023-05-09T03:05:36.673Z,7.16
2023-05-09T03:06:40.132Z,7.12
2023-05-09T03:07:47.612Z,7.14
2023-05-09T03:08:51.118Z,7.17
2023-05-09T03:09:55.136Z,7.11
2023-05-09T03:11:02.202Z,7.15
2023-05-09T03:12:06.741Z,7.19
2023-05-09T03:13:12.436Z,7.25
2023-05-09T03:14:16.373Z,7.27
2023-05-09T03:15:20.952Z,7.32
2023-05-09T03:16:25.713Z,7.40
2023-05-09T03:17:28.203Z,7.33
2023-05-09T03:18:32.169Z,7.39
2023-05-09T03:19:36.187Z,7.50
2023-05-09T03:20:39.818Z,7.39
2023-05-09T03:21:43.925Z,7.43
2023-05-09T03:22:49.115Z,7.39
2023-05-09T03:23:53.497Z,7.35
2023-05-09T03:24:57.060Z,7.39
2023-05-09T03:26:00.464Z,7.48
2023-05-09T03:27:04.398Z,7.50
2023-05-09T03:28:07.764Z,7.61
2023-05-09T03:29:12.757Z,7.67
2023-05-09T03:30:16.619Z,7.65
2023-05-09T03:31:20.842Z,7.79
2023-05-09T03:32:24.124Z,7.80
2023-05-09T03:33:26.871Z,7.84
2023-05-09T03:34:30.697Z,7.89
2023-05-09T03:35:34.525Z,7.87
2023-05-09T03:36:38.762Z,7.85
2023-05-09T03:37:42.418Z,7.84
2023-05-09T03:38:44.925Z,7.88
2023-05-09T03:39:47.753Z,8.00
2023-05-09T03:40:53.207Z,8.00
2023-05-09T03:41:57.596Z,7.94
2023-05-09T03:43:00.628Z,7.81
2023-05-09T03:44:04.590Z,7.60
2023-05-09T03:45:09.922Z,7.78
2023-05-09T03:46:14.509Z,7.85
2023-05-09T03:47:18.897Z,7.79
2023-05-09T03:48:22.241Z,7.94
2023-05-09T03:49:27.062Z,8.07
2023-05-09T03:50:29.947Z,8.08
2023-05-09T03:51:34.295Z,8.04
2023-05-09T03:52:38.740Z,8.16
2023-05-09T03:53:43.871Z,8.21
2023-05-09T03:54:47.110Z,8.20
2023-05-09T03:55:49.862Z,8.13
2023-05-09T03:56:53.491Z,8.24
2023-05-09T03:57:56.572Z,8.29
2023-05-09T03:58:59.866Z,8.36
2023-05-09T04:00:05.854Z,8.24
2023-05-09T04:01:11.367Z,8.38
2023-05-09T04:02:17.398Z,8.77
2023-05-09T04:03:21.485Z,8.87
2023-05-09T04:04:26.279Z,8.89
2023-05-09T04:05:28.846Z,8.99
2023-05-09T04:06:35.029Z,9.11
2023-05-09T04:07:39.299Z,9.41
2023-05-09T04:08:43.426Z,9.69
2023-05-09T04:09:47.251Z,9.63
2023-05-09T04:10:53.250Z,9.22
2023-05-09T04:11:56.251Z,9.09
2023-05-09T04:13:00.713Z,8.94
2023-05-09T04:14:05.854Z,8.92
2023-05-09T04:15:12.263Z,8.93
2023-05-09T04:16:17.539Z,9.01
2023-05-09T04:17:21.094Z,9.16
2023-05-09T04:18:28.128Z,9.28
2023-05-09T04:19:30.494Z,9.23
2023-05-09T04:20:34.201Z,9.28
2023-05-09T04:21:38.341Z,9.11
2023-05-09T04:22:42.820Z,9.16
2023-05-09T04:23:48.696Z,9.09
2023-05-09T04:24:54.256Z,9.22
2023-05-09T04:25:58.421Z,9.41
2023-05-09T04:27:01.609Z,9.45
2023-05-09T04:28:04.489Z,9.42
2023-05-09T04:29:08.000Z,9.52
2023-05-09T04:30:12.221Z,9.50
2023-05-09T04:31:15.187Z,9.64
2023-05-09T04:32:21.368Z,9.39
2023-05-09T04:33:27.341Z,9.24
2023-05-09T04:34:34.082Z,9.50
2023-05-09T04:35:40.412Z,9.50
2023-05-09T04:36:44.014Z,9.58
2023-05-09T04:37:47.620Z,9.73
2023-05-09T04:38:53.840Z,10.07
2023-05-09T04:40:00.277Z,10.07
2023-05-09T04:41:06.282Z,10.15
2023-05-09T04:42:09.629Z,10.12
2023-05-09T04:43:13.509Z,10.24
2023-05-09T04:44:18.474Z,10.43
2023-05-09T04:45:24.908Z,10.53
2023-05-09T04:46:29.226Z,10.83
2023-05-09T04:47:32.655Z,10.96
2023-05-09T04:48:35.526Z,11.65
2023-05-09T04:49:38.926Z,11.20
2023-05-09T04:50:42.432Z,11.01
2023-05-09T04:51:46.249Z,10.90
2023-05-09T04:52:49.753Z,10.69
2023-05-09T04:53:53.375Z,10.46
2023-05-09T04:54:58.113Z,11.65
2023-05-09T04:56:02.433Z,11.62
2023-05-09T04:57:17.469Z,11.57
2023-05-09T04:58:15.223Z,11.49
2023-05-09T04:59:19.135Z,11.27
2023-05-09T05:00:23.471Z,11.10
2023-05-09T05:01:27.358Z,11.01
2023-05-09T05:02:31.799Z,11.26
2023-05-09T05:03:36.253Z,11.40
2023-05-09T05:04:40.531Z,11.87
2023-05-09T05:05:43.808Z,11.81
2023-05-09T05:06:47.578Z,11.39
2023-05-09T05:07:49.987Z,11.23
2023-05-09T05:08:55.580Z,11.50
2023-05-09T05:10:00.157Z,11.71
2023-05-09T05:11:03.859Z,11.96
2023-05-09T05:12:10.490Z,11.79
2023-05-09T05:13:15.062Z,11.81
2023-05-09T05:14:27.885Z,11.67
2023-05-09T05:15:31.872Z,11.84
2023-05-09T05:16:35.785Z,12.45
2023-05-09T05:17:39.607Z,12.40
2023-05-09T05:18:43.852Z,12.96
2023-05-09T05:19:48.134Z,14.90
2023-05-09T05:20:51.976Z,15.19
2023-05-09T05:21:55.698Z,14.80
2023-05-09T05:23:00.486Z,14.33
2023-05-09T05:24:03.563Z,13.67
2023-05-09T05:25:08.005Z,12.73
2023-05-09T05:26:12.141Z,12.64
2023-05-09T05:27:15.228Z,12.83
2023-05-09T05:28:17.793Z,12.85
2023-05-09T05:29:21.081Z,13.42
2023-05-09T05:30:25.636Z,13.21
2023-05-09T05:31:29.181Z,13.78
2023-05-09T05:32:32.679Z,13.61
2023-05-09T05:33:37.614Z,13.98
2023-05-09T05:34:42.792Z,14.17
2023-05-09T05:35:46.078Z,14.62
2023-05-09T05:36:48.410Z,14.61
2023-05-09T05:37:55.178Z,16.19
2023-05-09T05:38:58.811Z,15.53
2023-05-09T05:40:02.945Z,15.68
2023-05-09T05:41:07.047Z,15.99
2023-05-09T05:42:11.897Z,15.35
2023-05-09T05:43:15.836Z,16.59
2023-05-09T05:44:21.778Z,17.70
2023-05-09T05:45:28.343Z,16.86
2023-05-09T05:46:33.659Z,17.25
2023-05-09T05:47:38.055Z,20.11
2023-05-09T05:48:49.620Z,20.63
2023-05-09T05:49:55.794Z,19.35
2023-05-09T05:50:58.936Z,18.80
2023-05-09T05:52:07.457Z,20.33
2023-05-09T05:53:12.717Z,19.84
2023-05-09T05:54:16.792Z,19.07
2023-05-09T05:55:21.071Z,17.22
2023-05-09T05:56:23.906Z,16.21
2023-05-09T05:57:27.476Z,15.46
2023-05-09T05:58:32.913Z,15.14
2023-05-09T05:59:39.878Z,15.46
2023-05-09T06:00:44.816Z,15.97
2023-05-09T06:01:49.323Z,16.14
2023-05-09T06:02:52.328Z,16.64
2023-05-09T06:04:00.855Z,17.43
2023-05-09T06:05:07.790Z,17.78
2023-05-09T06:06:12.669Z,17.77
2023-05-09T06:07:17.353Z,17.75
2023-05-09T06:08:22.203Z,16.82
2023-05-09T06:09:25.461Z,17.28
2023-05-09T06:10:30.163Z,17.54
2023-05-09T06:11:32.819Z,17.44
2023-05-09T06:12:36.213Z,18.05
2023-05-09T06:13:46.006Z,18.41
2023-05-09T06:14:49.125Z,18.67
2023-05-09T06:15:54.988Z,18.71
2023-05-09T06:16:58.235Z,19.16
2023-05-09T06:18:10.218Z,19.09
2023-05-09T06:19:13.855Z,19.09
2023-05-09T06:20:19.969Z,19.19
2023-05-09T06:21:23.377Z,18.83
2023-05-09T06:22:30.331Z,19.99
2023-05-09T06:23:33.838Z,20.91
2023-05-09T06:24:37.010Z,22.08
2023-05-09T06:25:43.395Z,20.92
2023-05-09T06:26:46.843Z,20.29
2023-05-09T06:27:50.757Z,19.23
2023-05-09T06:28:54.062Z,18.34
2023-05-09T06:29:57.791Z,17.87
2023-05-09T06:31:03.073Z,17.71
2023-05-09T06:32:06.572Z,17.67
2023-05-09T06:33:11.753Z,17.66
2023-05-09T06:34:16.486Z,17.92
2023-05-09T06:35:20.820Z,17.77
2023-05-09T06:36:24.146Z,18.31
2023-05-09T06:37:27.022Z,18.56
2023-05-09T06:38:30.622Z,19.30
2023-05-09T06:39:35.485Z,20.56
2023-05-09T06:40:39.104Z,21.69
2023-05-09T06:41:42.913Z,23.04
2023-05-09T06:42:45.397Z,24.29
2023-05-09T06:43:51.392Z,24.75
2023-05-09T06:44:54.937Z,24.37
2023-05-09T06:46:00.138Z,23.33
2023-05-09T06:47:03.716Z,21.71
2023-05-09T06:48:07.222Z,19.86
2023-05-09T06:49:11.628Z,19.11
2023-05-09T06:50:16.088Z,19.29
2023-05-09T06:51:19.481Z,19.75
2023-05-09T06:52:24.126Z,20.30
2023-05-09T06:53:27.544Z,20.13
2023-05-09T06:54:35.637Z,19.87
2023-05-09T06:55:40.084Z,20.19
2023-05-09T06:56:43.578Z,20.92
2023-05-09T06:57:46.860Z,21.89
2023-05-09T06:58:49.977Z,21.91
2023-05-09T06:59:53.112Z,23.08
2023-05-09T07:01:00.634Z,23.91
2023-05-09T07:02:04.291Z,24.99
2023-05-09T07:03:11.298Z,25.45
2023-05-09T07:04:18.149Z,25.79
2023-05-09T07:05:21.596Z,27.63
2023-05-09T07:06:25.370Z,26.35
2023-05-09T07:07:31.506Z,26.11
2023-05-09T07:08:34.879Z,26.97
2023-05-09T07:09:40.056Z,27.57
2023-05-09T07:10:44.611Z,27.32
2023-05-09T07:11:48.127Z,27.01
2023-05-09T07:12:51.528Z,27.10
2023-05-09T07:13:54.694Z,27.43
2023-05-09T07:14:58.112Z,25.59
2023-05-09T07:16:01.876Z,24.86
2023-05-09T07:17:21.182Z,23.97
2023-05-09T07:18:08.726Z,23.14
2023-05-09T07:19:14.113Z,21.91
2023-05-09T07:20:16.252Z,22.19
2023-05-09T07:21:18.621Z,21.83
2023-05-09T07:22:22.092Z,21.89
2023-05-09T07:23:29.221Z,22.78
2023-05-09T07:24:32.341Z,22.89
2023-05-09T07:25:35.759Z,24.06
2023-05-09T07:26:39.285Z,25.71
2023-05-09T07:27:43.091Z,26.31
2023-05-09T07:28:46.598Z,26.21
2023-05-09T07:29:51.641Z,25.83
2023-05-09T07:30:56.845Z,26.02
2023-05-09T07:32:00.281Z,26.46
2023-05-09T07:33:03.565Z,27.17
2023-05-09T07:34:07.155Z,26.25
2023-05-09T07:35:11.011Z,25.20
2023-05-09T07:36:18.342Z,24.20
2023-05-09T07:37:21.843Z,24.81
2023-05-09T07:38:25.029Z,26.49
2023-05-09T07:39:28.329Z,27.28
2023-05-09T07:40:39.255Z,27.12
2023-05-09T07:41:42.768Z,26.24
2023-05-09T07:42:50.129Z,25.57
2023-05-09T07:43:54.457Z,25.03
2023-05-09T07:44:59.365Z,24.09
2023-05-09T07:46:05.187Z,21.88
2023-05-09T07:47:10.598Z,19.99
2023-05-09T07:48:14.440Z,19.41
2023-05-09T07:49:16.791Z,18.44
2023-05-09T07:50:21.347Z,17.77
2023-05-09T07:51:24.881Z,17.61
2023-05-09T07:52:27.139Z,19.17
2023-05-09T07:53:30.603Z,21.08
2023-05-09T07:54:34.004Z,23.02
2023-05-09T07:55:37.188Z,22.99
2023-05-09T07:56:42.061Z,22.51
2023-05-09T07:57:45.244Z,20.95
2023-05-09T07:58:48.453Z,20.98
2023-05-09T07:59:52.059Z,20.25
2023-05-09T08:00:56.815Z,21.59
2023-05-09T08:01:59.582Z,22.00
2023-05-09T08:03:03.313Z,22.57
2023-05-09T08:04:09.174Z,23.06
2023-05-09T08:05:15.862Z,23.18
2023-05-09T08:06:22.217Z,22.54
2023-05-09T08:07:30.066Z,21.07
2023-05-09T08:08:34.398Z,20.01
2023-05-09T08:09:42.602Z,19.79
2023-05-09T08:10:48.615Z,19.36
2023-05-09T08:11:52.121Z,19.06
2023-05-09T08:12:55.679Z,18.59
2023-05-09T08:14:02.107Z,18.13
2023-05-09T08:15:07.739Z,17.77
2023-05-09T08:16:12.764Z,17.66
2023-05-09T08:17:16.912Z,17.45
2023-05-09T08:18:22.442Z,17.41
2023-05-09T08:19:25.636Z,17.67
2023-05-09T08:20:28.938Z,17.82
2023-05-09T08:21:38.509Z,18.15
2023-05-09T08:22:42.012Z,18.17
2023-05-09T08:23:45.824Z,18.24
2023-05-09T08:24:50.268Z,18.12
2023-05-09T08:25:55.250Z,18.19
2023-05-09T08:26:58.951Z,18.18
2023-05-09T08:28:02.665Z,18.66
2023-05-09T08:29:06.739Z,18.63
2023-05-09T08:30:12.290Z,17.90
2023-05-09T08:31:16.039Z,18.16
2023-05-09T08:33:32.317Z,19.35
2023-05-09T08:34:36.502Z,19.09
2023-05-09T08:35:39.932Z,19.21
2023-05-09T08:36:47.493Z,19.21
2023-05-09T08:37:50.708Z,19.03
2023-05-09T08:38:53.998Z,19.10
2023-05-09T08:39:56.579Z,19.13
2023-05-09T08:41:02.690Z,19.37
2023-05-09T08:42:05.669Z,19.31
2023-05-09T08:43:10.333Z,18.84
2023-05-09T08:44:14.651Z,19.03
2023-05-09T08:45:19.951Z,19.26
2023-05-09T08:46:25.487Z,19.22
2023-05-09T08:47:29.706Z,19.30
2023-05-09T08:48:35.925Z,19.44
2023-05-09T08:49:41.402Z,19.46
2023-05-09T08:50:45.425Z,19.11
2023-05-09T08:51:48.399Z,19.50
2023-05-09T08:52:52.508Z,19.66
2023-05-09T08:53:55.925Z,19.24
2023-05-09T08:54:59.005Z,18.88
2023-05-09T08:56:06.732Z,18.84
2023-05-09T08:57:10.624Z,18.76
2023-05-09T08:58:15.483Z,18.37
2023-05-09T08:59:18.433Z,18.30
2023-05-09T09:00:22.694Z,18.44
2023-05-09T09:01:28.559Z,18.07
2023-05-09T09:02:33.195Z,18.12
2023-05-09T09:03:39.210Z,17.77
2023-05-09T09:04:41.540Z,17.63
2023-05-09T09:05:44.647Z,17.40
2023-05-09T09:06:48.230Z,17.38
2023-05-09T09:07:52.138Z,17.38
2023-05-09T09:08:58.993Z,17.53
2023-05-09T09:10:03.956Z,17.91
2023-05-09T09:11:09.027Z,18.09
2023-05-09T09:12:13.098Z,18.22
2023-05-09T09:13:18.434Z,18.26
2023-05-09T09:14:25.069Z,18.92
2023-05-09T09:15:30.788Z,20.46
2023-05-09T09:16:35.246Z,20.54
2023-05-09T09:17:40.331Z,19.87
2023-05-09T09:18:46.933Z,19.96
2023-05-09T09:19:50.905Z,19.84
2023-05-09T09:20:56.222Z,19.85
2023-05-09T09:21:59.431Z,19.65
2023-05-09T09:23:07.185Z,19.21
2023-05-09T09:24:11.722Z,19.35
2023-05-09T09:25:15.701Z,19.99
2023-05-09T09:26:19.192Z,19.69
2023-05-09T09:27:21.657Z,19.70
2023-05-09T09:28:27.352Z,19.68
2023-05-09T09:29:32.963Z,19.75
2023-05-09T09:30:37.594Z,19.03
2023-05-09T09:31:42.693Z,18.82
2023-05-09T09:32:45.478Z,19.01
2023-05-09T09:33:49.371Z,19.49
2023-05-09T09:34:54.860Z,20.08
2023-05-09T09:35:58.401Z,19.98
2023-05-09T09:37:03.010Z,19.62
2023-05-09T09:38:07.149Z,19.48
2023-05-09T09:39:11.752Z,19.47
2023-05-09T09:40:19.748Z,19.24
2023-05-09T09:41:24.563Z,18.89
2023-05-09T09:42:27.856Z,18.57
2023-05-09T09:43:32.596Z,18.40
2023-05-09T09:44:35.844Z,18.78
2023-05-09T09:45:40.189Z,18.76
2023-05-09T09:46:52.810Z,18.97
2023-05-09T09:47:55.850Z,19.22
2023-05-09T09:48:59.724Z,18.72
2023-05-09T09:50:13.660Z,18.46
2023-05-09T09:51:18.989Z,18.25
2023-05-09T09:52:25.817Z,18.24
2023-05-09T09:53:30.184Z,18.36
2023-05-09T09:54:34.842Z,18.43
2023-05-09T09:55:37.905Z,18.17
2023-05-09T09:56:43.673Z,17.85
2023-05-09T09:57:50.075Z,17.85
2023-05-09T09:58:55.260Z,17.91
2023-05-09T09:59:59.445Z,18.07
2023-05-09T10:01:09.926Z,18.22
2023-05-09T10:02:12.745Z,18.11
2023-05-09T10:03:19.455Z,17.45
2023-05-09T10:04:23.085Z,17.81
2023-05-09T10:05:29.908Z,18.07
2023-05-09T10:06:32.686Z,17.80
2023-05-09T10:07:35.476Z,18.38
2023-05-09T10:08:39.207Z,19.19
2023-05-09T10:09:43.314Z,19.52
2023-05-09T10:10:46.819Z,19.98
2023-05-09T10:11:52.197Z,20.56
2023-05-09T10:12:59.768Z,20.35
2023-05-09T10:14:04.036Z,20.32
2023-05-09T10:15:09.439Z,20.02
2023-05-09T10:16:13.741Z,20.19
2023-05-09T10:17:18.459Z,20.22
2023-05-09T10:18:26.727Z,20.11
2023-05-09T10:19:33.422Z,19.95
2023-05-09T10:20:40.915Z,19.80
2023-05-09T10:21:47.415Z,19.65
2023-05-09T10:22:52.005Z,19.44
2023-05-09T10:23:57.594Z,19.26
2023-05-09T10:25:05.408Z,19.01
2023-05-09T10:26:22.871Z,18.73
2023-05-09T10:27:28.798Z,18.75
2023-05-09T10:28:34.315Z,18.56
2023-05-09T10:29:50.008Z,18.67
2023-05-09T10:30:59.846Z,18.56
2023-05-09T10:32:06.882Z,18.39
2023-05-09T10:33:14.114Z,18.69
2023-05-09T10:34:18.901Z,19.39
2023-05-09T10:35:24.351Z,20.10
2023-05-09T10:36:29.215Z,19.77
2023-05-09T10:37:33.560Z,19.45
2023-05-09T10:38:41.020Z,19.60
2023-05-09T10:39:45.997Z,19.22
2023-05-09T10:40:49.804Z,19.13
2023-05-09T10:41:53.517Z,19.46
2023-05-09T10:42:57.544Z,18.60
2023-05-09T10:44:02.143Z,18.71
2023-05-09T10:45:08.304Z,18.67
2023-05-09T10:46:13.834Z,18.45
2023-05-09T10:47:17.837Z,18.26
2023-05-09T10:48:22.495Z,18.56
2023-05-09T10:49:27.905Z,18.54
2023-05-09T10:50:31.850Z,18.79
2023-05-09T10:51:38.450Z,18.65
2023-05-09T10:53:03.780Z,18.86
2023-05-09T10:54:08.885Z,18.83
2023-05-09T10:55:12.031Z,19.05
2023-05-09T10:56:29.328Z,18.80
2023-05-09T10:57:34.012Z,18.49
2023-05-09T10:58:41.780Z,18.60
2023-05-09T10:59:47.162Z,18.73
2023-05-09T11:00:51.482Z,18.80
2023-05-09T11:01:56.724Z,19.00
2023-05-09T11:03:10.672Z,18.91
2023-05-09T11:04:17.369Z,18.82
2023-05-09T11:05:21.072Z,18.06
2023-05-09T11:06:46.722Z,17.94
2023-05-09T11:07:53.784Z,17.84
2023-05-09T11:08:57.290Z,17.07
2023-05-09T11:10:14.377Z,17.21
2023-05-09T11:11:19.870Z,17.53
2023-05-09T11:12:23.577Z,17.67
2023-05-09T11:13:28.268Z,17.61
2023-05-09T11:14:36.233Z,17.60
2023-05-09T11:15:56.882Z,17.75
2023-05-09T11:16:59.833Z,17.73
2023-05-09T11:18:06.696Z,17.40
2023-05-09T11:19:11.499Z,17.69
2023-05-09T11:20:17.070Z,17.70
2023-05-09T11:21:21.118Z,18.03
2023-05-09T11:22:26.876Z,18.33
2023-05-09T11:23:31.850Z,18.12
2023-05-09T11:24:36.633Z,18.01
2023-05-09T11:25:42.040Z,18.07
2023-05-09T11:26:48.948Z,18.27
2023-05-09T11:27:53.062Z,18.07
2023-05-09T11:28:57.520Z,18.26
2023-05-09T11:30:02.908Z,18.21
2023-05-09T11:31:10.178Z,18.37
2023-05-09T11:32:18.672Z,18.29
2023-05-09T11:33:33.953Z,18.21
2023-05-09T11:34:39.366Z,18.06
2023-05-09T11:35:44.540Z,17.77
2023-05-09T11:36:48.898Z,17.81
2023-05-09T11:38:02.117Z,17.88
2023-05-09T11:39:07.382Z,17.90
2023-05-09T11:40:14.398Z,18.11
2023-05-09T11:41:19.418Z,18.46
2023-05-09T11:42:24.596Z,18.77
2023-05-09T11:43:28.096Z,18.83
2023-05-09T11:44:33.989Z,18.65
2023-05-09T11:45:37.526Z,18.73
2023-05-09T11:46:41.008Z,18.92
2023-05-09T11:47:49.184Z,19.05
2023-05-09T11:48:52.722Z,18.86
2023-05-09T11:49:56.220Z,18.90
2023-05-09T11:50:59.740Z,18.66
2023-05-09T11:52:04.273Z,18.43
2023-05-09T11:53:10.471Z,18.33
2023-05-09T11:54:16.743Z,17.87
2023-05-09T11:55:24.509Z,18.05
2023-05-09T11:56:32.089Z,18.40
2023-05-09T11:57:36.221Z,18.42
2023-05-09T11:58:42.014Z,18.36
2023-05-09T11:59:47.543Z,18.13
2023-05-09T12:00:50.901Z,18.18
2023-05-09T12:01:56.099Z,18.44
2023-05-09T12:02:59.775Z,18.50
2023-05-09T12:04:08.604Z,18.35
2023-05-09T12:05:13.715Z,18.46
2023-05-09T12:06:20.073Z,18.65
2023-05-09T12:07:23.120Z,18.58
2023-05-09T12:08:27.771Z,18.47
2023-05-09T12:09:38.737Z,18.44
2023-05-09T12:10:45.514Z,18.44
2023-05-09T12:11:53.353Z,18.38
2023-05-09T12:12:57.788Z,18.43
2023-05-09T12:14:01.054Z,18.37
2023-05-09T12:15:08.707Z,18.69
2023-05-09T12:16:14.047Z,18.34
2023-05-09T12:17:18.478Z,18.19
2023-05-09T12:18:23.757Z,17.89
2023-05-09T12:19:27.466Z,17.76
2023-05-09T12:20:34.590Z,17.88
2023-05-09T12:21:40.526Z,18.24
2023-05-09T12:22:44.366Z,17.86
2023-05-09T12:23:50.991Z,17.81
2023-05-09T12:24:55.798Z,18.15
2023-05-09T12:26:00.192Z,18.09
2023-05-09T12:27:03.387Z,18.38
2023-05-09T12:28:06.876Z,18.46
2023-05-09T12:29:10.608Z,18.94
2023-05-09T12:30:15.530Z,19.12
2023-05-09T12:31:20.251Z,19.34
2023-05-09T12:32:23.730Z,19.46
2023-05-09T12:33:28.595Z,19.56
2023-05-09T12:34:33.822Z,19.59
2023-05-09T12:35:39.819Z,19.53
2023-05-09T12:36:51.320Z,19.39
2023-05-09T12:37:58.898Z,19.26
2023-05-09T12:39:02.291Z,19.08
2023-05-09T12:40:16.581Z,18.81
2023-05-09T12:42:31.088Z,18.54
2023-05-09T12:43:35.724Z,18.13
2023-05-09T12:44:39.158Z,17.67
2023-05-09T12:45:44.006Z,17.37
2023-05-09T12:46:57.471Z,17.44
2023-05-09T12:48:01.856Z,17.24
2023-05-09T12:49:04.979Z,16.99
2023-05-09T12:50:11.288Z,17.42
2023-05-09T12:51:16.568Z,17.18
2023-05-09T12:52:21.236Z,16.88
2023-05-09T12:53:28.657Z,16.89
2023-05-09T12:54:31.683Z,16.94
2023-05-09T12:55:36.809Z,17.00
2023-05-09T12:56:40.365Z,16.89
2023-05-09T12:57:44.822Z,16.90
2023-05-09T12:58:56.987Z,16.70
2023-05-09T13:00:01.791Z,16.68
2023-05-09T13:01:06.443Z,16.90
2023-05-09T13:02:13.245Z,16.86
2023-05-09T13:03:30.333Z,16.98
2023-05-09T13:04:34.669Z,17.33
2023-05-09T13:05:38.176Z,17.56
2023-05-09T13:06:51.400Z,17.76
2023-05-09T13:07:56.595Z,17.76
2023-05-09T13:09:00.109Z,17.62
2023-05-09T13:10:03.844Z,17.47
2023-05-09T13:12:17.919Z,17.22
2023-05-09T13:13:23.645Z,17.27
2023-05-09T13:14:26.548Z,17.30
2023-05-09T13:15:30.512Z,17.22
2023-05-09T13:16:33.889Z,17.59
2023-05-09T13:17:37.421Z,17.90
2023-05-09T13:18:42.585Z,18.12
2023-05-09T13:19:47.662Z,18.39
2023-05-09T13:20:52.210Z,18.59
2023-05-09T13:21:58.022Z,18.63
2023-05-09T13:23:03.128Z,18.74
2023-05-09T13:24:07.711Z,18.74
2023-05-09T13:25:12.183Z,18.63
2023-05-09T13:26:14.915Z,18.68
2023-05-09T13:27:18.250Z,18.41
2023-05-09T13:28:23.960Z,18.24
2023-05-09T13:29:30.812Z,18.11
2023-05-09T13:30:34.148Z,17.83
2023-05-09T13:31:40.426Z,17.72
2023-05-09T13:32:43.116Z,17.72
2023-05-09T13:33:48.710Z,17.71
2023-05-09T13:34:52.378Z,18.15
2023-05-09T13:35:56.033Z,18.22
2023-05-09T13:36:59.733Z,18.03
2023-05-09T13:38:04.476Z,18.07
2023-05-09T13:39:09.659Z,18.16
2023-05-09T13:40:14.056Z,18.08
2023-05-09T13:41:19.392Z,17.76
2023-05-09T13:42:23.989Z,17.66
2023-05-09T13:43:28.068Z,17.77
2023-05-09T13:44:30.519Z,17.88
2023-05-09T13:45:33.919Z,17.89
2023-05-09T13:46:37.961Z,18.12
2023-05-09T13:47:42.131Z,18.21
2023-05-09T13:48:47.264Z,18.14
2023-05-09T13:49:50.998Z,18.02
2023-05-09T13:50:54.371Z,17.96
2023-05-09T13:51:57.062Z,18.11
2023-05-09T13:53:00.672Z,17.84
2023-05-09T13:54:05.520Z,17.35
2023-05-09T13:55:10.276Z,17.03
2023-05-09T13:56:14.620Z,17.08
2023-05-09T13:57:17.809Z,17.09
2023-05-09T13:58:23.514Z,17.04
2023-05-09T13:59:25.954Z,16.96
2023-05-09T14:00:28.642Z,16.71
2023-05-09T14:01:32.083Z,16.64
2023-05-09T14:02:35.583Z,16.69
2023-05-09T14:03:39.190Z,16.66
2023-05-09T14:04:41.615Z,17.05
2023-05-09T14:05:44.115Z,17.09
2023-05-09T14:06:49.671Z,17.06
2023-05-09T14:07:53.490Z,17.05
2023-05-09T14:09:01.369Z,17.30
2023-05-09T14:10:11.474Z,16.82
2023-05-09T14:11:10.632Z,16.88
2023-05-09T14:12:15.320Z,17.02
2023-05-09T14:13:18.191Z,17.20